createdAt,value
2023-02-04T00:00:39.100Z,45.15
2023-02-04T00:03:10.127Z,45.23
2023-02-04T00:05:40.669Z,45.26
2023-02-04T00:08:14.446Z,45.15
2023-02-04T00:10:45.034Z,45.26
2023-02-04T00:13:15.329Z,45.52
2023-02-04T00:15:46.423Z,45.34
2023-02-04T00:18:17.152Z,45.77
2023-02-04T00:20:47.831Z,45.88
2023-02-04T00:23:20.732Z,45.45
2023-02-04T00:25:51.354Z,45.81
2023-02-04T00:28:22.732Z,45.70
2023-02-04T00:30:53.694Z,45.54
2023-02-04T00:33:23.746Z,45.58
2023-02-04T00:35:55.265Z,45.56
2023-02-04T00:38:29.061Z,45.58
2023-02-04T00:40:59.801Z,45.98
2023-02-04T00:43:30.044Z,45.52
2023-02-04T00:46:00.761Z,46.26
2023-02-04T00:48:31.753Z,45.81
2023-02-04T00:51:02.505Z,45.83
2023-02-04T00:53:35.254Z,45.74
2023-02-04T00:56:06.049Z,46.03
2023-02-04T00:58:36.209Z,46.04
2023-02-04T01:01:06.658Z,45.83
2023-02-04T01:03:37.416Z,46.13
2023-02-04T01:06:07.936Z,46.01
2023-02-04T01:08:39.534Z,46.33
2023-02-04T01:11:10.274Z,45.97
2023-02-04T01:13:40.349Z,46.25
2023-02-04T01:16:11.263Z,46.05
2023-02-04T01:18:41.640Z,45.88
2023-02-04T01:21:12.418Z,45.97
2023-02-04T01:23:45.240Z,46.14
2023-02-04T01:26:15.748Z,46.21
2023-02-04T01:28:46.446Z,46.03
2023-02-04T01:31:17.515Z,46.08
2023-02-04T01:33:48.501Z,46.25
2023-02-04T01:36:22.585Z,46.08
2023-02-04T01:38:54.753Z,45.68
2023-02-04T01:41:24.923Z,46.41
2023-02-04T01:43:56.014Z,46.12
2023-02-04T01:46:26.361Z,46.13
2023-02-04T01:48:57.222Z,46.22
2023-02-04T01:51:32.523Z,46.31
2023-02-04T01:54:05.299Z,46.22
2023-02-04T01:56:36.621Z,46.10
2023-02-04T01:59:15.393Z,45.96
2023-02-04T02:01:49.438Z,46.55
2023-02-04T02:04:23.849Z,46.15
2023-02-04T02:06:59.799Z,46.48
2023-02-04T02:09:34.296Z,46.03
2023-02-04T02:12:07.318Z,46.27
2023-02-04T02:14:38.092Z,46.19
2023-02-04T02:17:09.419Z,46.36
2023-02-04T02:19:42.577Z,46.57
2023-02-04T02:22:25.976Z,46.31
2023-02-04T02:24:57.962Z,46.32
2023-02-04T02:27:28.704Z,46.36
2023-02-04T02:30:00.158Z,46.18
2023-02-04T02:32:30.943Z,46.53
2023-02-04T02:35:02.266Z,46.13
2023-02-04T02:37:33.565Z,46.63
2023-02-04T02:40:07.825Z,46.65
2023-02-04T02:42:39.522Z,46.83
2023-02-04T02:45:24.325Z,46.47
2023-02-04T02:47:55.308Z,46.65
2023-02-04T02:50:30.289Z,46.46
2023-02-04T02:53:02.321Z,46.79
2023-02-04T02:55:35.742Z,46.46
2023-02-04T02:58:07.382Z,46.45
2023-02-04T03:00:37.268Z,46.35
2023-02-04T03:03:13.062Z,46.67
2023-02-04T03:05:46.802Z,46.70
2023-02-04T03:08:19.281Z,46.60
2023-02-04T03:10:52.307Z,46.46
2023-02-04T03:13:23.821Z,46.79
2023-02-04T03:15:55.298Z,46.32
2023-02-04T03:18:26.533Z,46.42
2023-02-04T03:20:57.881Z,46.53
2023-02-04T03:23:29.393Z,46.54
2023-02-04T03:26:01.764Z,46.92
2023-02-04T03:28:33.014Z,46.73
2023-02-04T03:31:04.367Z,46.67
2023-02-04T03:33:37.018Z,46.40
2023-02-04T03:36:08.419Z,46.48
2023-02-04T03:38:39.145Z,46.71
2023-02-04T03:41:11.224Z,46.54
2023-02-04T03:43:41.196Z,46.76
2023-02-04T03:46:11.191Z,47.04
2023-02-04T03:48:41.834Z,47.06
2023-02-04T03:51:24.822Z,47.01
2023-02-04T03:53:55.388Z,47.18
2023-02-04T03:56:28.122Z,46.77
2023-02-04T03:58:59.200Z,47.31
2023-02-04T04:01:29.893Z,46.91
2023-02-04T04:04:00.633Z,47.26
2023-02-04T04:06:32.585Z,47.19
2023-02-04T04:09:03.798Z,46.80
2023-02-04T04:11:36.473Z,47.10
2023-02-04T04:14:06.645Z,47.01
2023-02-04T04:16:37.828Z,46.93
2023-02-04T04:19:08.186Z,47.30
2023-02-04T04:21:38.815Z,47.28
2023-02-04T04:24:09.795Z,47.02
2023-02-04T04:26:42.593Z,47.04
2023-02-04T04:29:13.494Z,47.18
2023-02-04T04:31:45.489Z,47.58
2023-02-04T04:34:16.287Z,47.34
2023-02-04T04:36:46.949Z,47.36
2023-02-04T04:39:17.024Z,47.26
2023-02-04T04:41:48.836Z,47.63
2023-02-04T04:44:22.977Z,47.30
2023-02-04T04:46:54.296Z,47.26
2023-02-04T04:49:24.770Z,47.34
2023-02-04T04:51:56.106Z,47.59
2023-02-04T04:54:26.839Z,47.70
2023-02-04T04:56:59.581Z,47.17
2023-02-04T04:59:29.971Z,47.55
2023-02-04T05:02:01.285Z,47.52
2023-02-04T05:04:31.916Z,47.43
2023-02-04T05:07:02.635Z,47.75
2023-02-04T05:09:33.557Z,47.33
2023-02-04T05:12:06.850Z,47.40
2023-02-04T05:14:37.778Z,47.74
2023-02-04T05:17:08.408Z,47.40
2023-02-04T05:19:39.089Z,47.43
2023-02-04T05:22:09.383Z,47.85
2023-02-04T05:24:40.047Z,47.49
2023-02-04T05:27:12.423Z,47.40
2023-02-04T05:29:43.056Z,47.30
2023-02-04T05:32:14.383Z,47.92
2023-02-04T05:34:45.732Z,47.67
2023-02-04T05:37:18.061Z,47.51
2023-02-04T05:39:48.227Z,47.67
2023-02-04T05:42:21.364Z,47.39
2023-02-04T05:44:52.637Z,47.84
2023-02-04T05:47:23.174Z,47.81
2023-02-04T05:49:53.492Z,47.83
2023-02-04T05:52:24.287Z,47.93
2023-02-04T05:54:55.600Z,47.92
2023-02-04T05:57:28.017Z,48.21
2023-02-04T05:59:59.223Z,47.94
2023-02-04T06:02:29.182Z,48.12
2023-02-04T06:04:59.411Z,47.91
2023-02-04T06:07:29.621Z,48.15
2023-02-04T06:10:00.520Z,47.85
2023-02-04T06:12:33.511Z,47.78
2023-02-04T06:15:03.669Z,47.89
2023-02-04T06:17:34.174Z,48.14
2023-02-04T06:20:05.591Z,48.16
2023-02-04T06:22:36.470Z,47.68
2023-02-04T06:25:07.617Z,48.16
2023-02-04T06:27:40.136Z,48.17
2023-02-04T06:30:13.922Z,48.26
2023-02-04T06:32:44.900Z,48.31
2023-02-04T06:35:16.992Z,47.98
2023-02-04T06:37:48.431Z,48.48
2023-02-04T06:40:19.437Z,47.86
2023-02-04T06:42:51.787Z,48.31
2023-02-04T06:45:23.048Z,47.95
2023-02-04T06:47:52.892Z,48.20
2023-02-04T06:50:23.646Z,48.16
2023-02-04T06:52:53.730Z,48.35
2023-02-04T06:55:24.828Z,48.62
2023-02-04T06:57:57.470Z,48.28
2023-02-04T07:00:28.206Z,48.20
2023-02-04T07:02:59.103Z,48.80
2023-02-04T07:05:30.305Z,48.91
2023-02-04T07:08:00.868Z,49.69
2023-02-04T07:10:32.375Z,49.59
2023-02-04T07:13:05.308Z,50.20
2023-02-04T07:15:36.310Z,50.67
2023-02-04T07:18:07.935Z,50.00
2023-02-04T07:20:37.984Z,50.24
2023-02-04T07:23:08.646Z,50.08
2023-02-04T07:25:39.264Z,49.90
2023-02-04T07:28:12.022Z,50.32
2023-02-04T07:30:42.003Z,49.66
2023-02-04T07:33:12.443Z,50.12
2023-02-04T07:35:42.897Z,50.02
2023-02-04T07:38:13.981Z,49.38
2023-02-04T07:40:44.494Z,49.44
2023-02-04T07:43:16.779Z,48.74
2023-02-04T07:45:46.785Z,49.20
2023-02-04T07:48:17.397Z,48.91
2023-02-04T07:50:48.169Z,48.48
2023-02-04T07:53:18.684Z,48.10
2023-02-04T07:55:49.462Z,47.99
2023-02-04T07:58:23.389Z,47.88
2023-02-04T08:00:54.661Z,47.83
2023-02-04T08:03:25.364Z,48.36
2023-02-04T08:05:56.623Z,48.03
2023-02-04T08:08:27.455Z,48.17
2023-02-04T08:10:58.768Z,48.02
2023-02-04T08:13:31.569Z,47.95
2023-02-04T08:16:02.216Z,48.10
2023-02-04T08:18:33.030Z,48.29
2023-02-04T08:21:05.682Z,48.95
2023-02-04T08:23:41.970Z,48.79
2023-02-04T08:26:13.333Z,49.18
2023-02-04T08:28:46.037Z,48.93
2023-02-04T08:31:16.725Z,48.71
2023-02-04T08:33:47.535Z,49.13
2023-02-04T08:36:18.640Z,48.90
2023-02-04T08:38:49.398Z,48.86
2023-02-04T08:41:21.499Z,48.99
2023-02-04T08:43:54.028Z,48.29
2023-02-04T08:46:24.779Z,48.18
2023-02-04T08:48:55.205Z,48.24
2023-02-04T08:51:25.526Z,48.24
2023-02-04T08:53:56.060Z,48.05
2023-02-04T08:56:26.382Z,48.12
2023-02-04T08:58:59.837Z,48.21
2023-02-04T09:01:30.343Z,47.71
2023-02-04T09:04:00.433Z,47.68
2023-02-04T09:06:30.646Z,47.93
2023-02-04T09:09:01.338Z,47.81
2023-02-04T09:11:31.562Z,47.58
2023-02-04T09:14:04.336Z,47.41
2023-02-04T09:16:34.864Z,47.37
2023-02-04T09:19:05.976Z,47.30
2023-02-04T09:21:37.175Z,47.20
2023-02-04T09:24:07.230Z,47.04
2023-02-04T09:26:49.719Z,47.30
2023-02-04T09:29:19.651Z,47.10
2023-02-04T09:31:50.612Z,47.12
2023-02-04T09:34:22.118Z,47.32
2023-02-04T09:36:53.657Z,47.27
2023-02-04T09:39:25.086Z,46.87
2023-02-04T09:41:57.901Z,46.90
2023-02-04T09:44:31.466Z,47.28
2023-02-04T09:47:04.083Z,47.05
2023-02-04T09:49:35.420Z,46.91
2023-02-04T09:52:06.038Z,46.86
2023-02-04T09:54:38.795Z,46.96
2023-02-04T09:57:19.497Z,46.98
2023-02-04T09:59:50.499Z,46.87
2023-02-04T10:02:27.703Z,46.95
2023-02-04T10:05:00.642Z,47.02
2023-02-04T10:07:33.012Z,47.28
2023-02-04T10:10:03.806Z,46.71
2023-02-04T10:12:36.080Z,46.88
2023-02-04T10:15:11.336Z,47.13
2023-02-04T10:17:41.477Z,46.53
2023-02-04T10:20:17.286Z,46.81
2023-02-04T10:22:49.284Z,46.86
2023-02-04T10:25:25.302Z,47.17
2023-02-04T10:28:01.153Z,46.86
2023-02-04T10:30:36.576Z,47.01
2023-02-04T10:33:18.202Z,46.79
2023-02-04T10:35:52.559Z,46.90
2023-02-04T10:38:24.134Z,46.96
2023-02-04T10:41:05.902Z,47.17
2023-02-04T10:44:08.457Z,47.24
2023-02-04T10:46:38.647Z,47.14
2023-02-04T10:49:19.340Z,46.81
2023-02-04T10:51:53.114Z,47.18
2023-02-04T10:54:34.410Z,46.83
2023-02-04T10:57:21.623Z,46.50
2023-02-04T10:59:58.333Z,46.55
2023-02-04T11:02:46.521Z,46.27
2023-02-04T11:05:21.816Z,46.28
2023-02-04T11:07:53.272Z,46.07
2023-02-04T11:10:26.907Z,46.09
2023-02-04T11:13:06.957Z,45.87
2023-02-04T11:15:49.155Z,46.11
2023-02-04T11:18:45.110Z,46.03
2023-02-04T11:21:25.016Z,45.83
2023-02-04T11:24:09.908Z,45.50
2023-02-04T11:26:42.509Z,45.64
2023-02-04T11:29:31.552Z,45.44
2023-02-04T11:32:07.481Z,45.42
2023-02-04T11:34:53.633Z,45.36
2023-02-04T11:37:41.489Z,45.77
2023-02-04T11:40:31.108Z,45.50
2023-02-04T11:43:12.118Z,45.15
2023-02-04T11:45:43.692Z,45.18
2023-02-04T11:48:21.254Z,45.18
2023-02-04T11:51:00.868Z,45.08
2023-02-04T11:53:34.310Z,45.31
2023-02-04T11:56:05.469Z,45.28
2023-02-04T11:58:36.691Z,44.94
2023-02-04T12:01:09.072Z,45.21
2023-02-04T12:03:51.135Z,44.87
2023-02-04T12:06:26.620Z,44.73
2023-02-04T12:09:08.499Z,44.93
2023-02-04T12:11:39.307Z,44.70
2023-02-04T12:14:19.994Z,44.52
2023-02-04T12:16:53.213Z,44.91
2023-02-04T12:19:27.626Z,44.58
2023-02-04T12:21:59.060Z,44.85
2023-02-04T12:24:29.540Z,44.81
2023-02-04T12:26:59.573Z,44.58
2023-02-04T12:29:30.110Z,44.44
2023-02-04T12:32:00.200Z,44.46
2023-02-04T12:34:32.531Z,44.65
2023-02-04T12:37:02.758Z,44.63
2023-02-04T12:39:33.182Z,44.40
2023-02-04T12:42:04.965Z,44.24
2023-02-04T12:44:36.615Z,44.40
2023-02-04T12:47:06.995Z,44.48
2023-02-04T12:49:39.290Z,44.25
2023-02-04T12:52:09.550Z,44.35
2023-02-04T12:54:40.090Z,44.29
2023-02-04T12:57:12.143Z,43.98
2023-02-04T12:59:42.630Z,44.02
2023-02-04T13:02:14.037Z,44.23
2023-02-04T13:04:46.563Z,44.23
2023-02-04T13:07:17.221Z,44.11
2023-02-04T13:09:48.120Z,43.94
2023-02-04T13:12:19.041Z,44.17
2023-02-04T13:14:49.660Z,44.10
2023-02-04T13:17:21.127Z,43.87
2023-02-04T13:19:53.430Z,44.13
2023-02-04T13:22:24.243Z,43.93
2023-02-04T13:24:54.825Z,43.89
2023-02-04T13:27:25.466Z,43.81
2023-02-04T13:29:56.602Z,43.87
2023-02-04T13:32:27.999Z,43.43
2023-02-04T13:35:00.590Z,43.50
2023-02-04T13:37:32.012Z,43.35
2023-02-04T13:40:03.144Z,43.58
2023-02-04T13:42:34.347Z,43.26
2023-02-04T13:45:05.456Z,43.27
2023-02-04T13:47:36.067Z,43.28
2023-02-04T13:50:09.180Z,43.29
2023-02-04T13:52:39.904Z,43.16
2023-02-04T13:55:10.743Z,42.81
2023-02-04T13:57:41.479Z,43.16
2023-02-04T14:00:14.626Z,43.47
2023-02-04T14:02:45.390Z,43.29
2023-02-04T14:05:17.690Z,42.89
2023-02-04T14:07:48.316Z,43.21
2023-02-04T14:10:19.420Z,43.28
2023-02-04T14:12:50.259Z,42.89
2023-02-04T14:15:21.101Z,43.07
2023-02-04T14:17:52.185Z,42.81
2023-02-04T14:20:24.620Z,42.89
2023-02-04T14:22:55.940Z,42.67
2023-02-04T14:25:27.160Z,43.13
2023-02-04T14:28:00.103Z,43.24
2023-02-04T14:30:32.619Z,42.96
2023-02-04T14:33:03.886Z,42.96
2023-02-04T14:35:38.195Z,43.25
2023-02-04T14:38:09.604Z,43.24
2023-02-04T14:40:40.516Z,43.07
2023-02-04T14:43:12.597Z,43.47
2023-02-04T14:45:44.181Z,43.41
2023-02-04T14:48:14.713Z,43.12
2023-02-04T14:50:47.645Z,43.21
2023-02-04T14:53:19.962Z,43.19
2023-02-04T14:55:50.269Z,43.59
2023-02-04T14:58:20.932Z,43.63
2023-02-04T15:00:54.639Z,43.45
2023-02-04T15:03:25.231Z,43.48
2023-02-04T15:05:57.310Z,43.37
2023-02-04T15:08:27.488Z,43.46
2023-02-04T15:10:58.816Z,43.66
2023-02-04T15:13:29.753Z,43.62
2023-02-04T15:16:00.353Z,43.50
2023-02-04T15:18:31.924Z,43.70
2023-02-04T15:21:04.511Z,43.41
2023-02-04T15:23:34.898Z,43.74
2023-02-04T15:26:05.696Z,43.92
2023-02-04T15:28:36.283Z,43.61
2023-02-04T15:31:07.705Z,43.75
2023-02-04T15:33:38.358Z,43.84
2023-02-04T15:36:11.574Z,43.76
2023-02-04T15:38:42.797Z,44.12
2023-02-04T15:41:12.979Z,43.92
2023-02-04T15:43:43.587Z,44.28
2023-02-04T15:46:14.757Z,43.85
2023-02-04T15:48:45.333Z,44.81
2023-02-04T15:51:17.481Z,44.35
2023-02-04T15:53:48.243Z,44.40
2023-02-04T15:56:18.356Z,44.55
2023-02-04T15:58:49.216Z,44.08
2023-02-04T16:01:24.269Z,44.31
2023-02-04T16:03:56.884Z,44.25
2023-02-04T16:06:29.668Z,44.38
2023-02-04T16:09:00.308Z,44.75
2023-02-04T16:11:31.035Z,44.38
2023-02-04T16:14:02.219Z,44.73
2023-02-04T16:16:32.800Z,44.63
2023-02-04T16:19:03.583Z,44.62
2023-02-04T16:21:35.702Z,44.82
2023-02-04T16:24:06.560Z,45.08
2023-02-04T16:26:37.295Z,44.98
2023-02-04T16:29:07.840Z,44.79
2023-02-04T16:31:38.035Z,44.69
2023-02-04T16:34:08.635Z,44.91
2023-02-04T16:36:40.973Z,44.75
2023-02-04T16:39:11.679Z,44.98
2023-02-04T16:41:42.307Z,44.69
2023-02-04T16:44:13.826Z,45.54
2023-02-04T16:46:44.543Z,44.92
2023-02-04T16:49:15.753Z,45.18
2023-02-04T16:51:48.945Z,44.99
2023-02-04T16:54:20.222Z,44.82
2023-02-04T16:56:51.002Z,44.75
2023-02-04T16:59:21.689Z,44.88
2023-02-04T17:01:52.930Z,44.98
2023-02-04T17:04:23.434Z,44.82
2023-02-04T17:06:56.630Z,45.05
2023-02-04T17:09:27.790Z,44.89
2023-02-04T17:11:58.545Z,44.99
2023-02-04T17:14:29.214Z,44.86
2023-02-04T17:16:59.903Z,44.83
2023-02-04T17:19:30.698Z,44.75
2023-02-04T17:22:03.024Z,45.03
2023-02-04T17:24:33.781Z,45.30
2023-02-04T17:27:04.611Z,45.09
2023-02-04T17:29:35.856Z,44.95
2023-02-04T17:32:08.035Z,45.01
2023-02-04T17:34:39.294Z,44.98
2023-02-04T17:37:11.481Z,45.20
2023-02-04T17:39:42.712Z,45.17
2023-02-04T17:42:13.342Z,45.29
2023-02-04T17:44:44.259Z,45.21
2023-02-04T17:47:14.942Z,45.48
2023-02-04T17:49:46.503Z,45.29
2023-02-04T17:52:19.207Z,45.64
2023-02-04T17:54:49.866Z,45.64
2023-02-04T17:57:23.207Z,45.28
2023-02-04T17:59:53.986Z,45.55
2023-02-04T18:02:31.616Z,45.85
2023-02-04T18:05:15.012Z,45.44
2023-02-04T18:07:55.987Z,45.75
2023-02-04T18:10:36.396Z,45.80
2023-02-04T18:13:17.114Z,45.58
2023-02-04T18:15:51.577Z,45.63
2023-02-04T18:18:25.801Z,45.47
2023-02-04T18:21:05.789Z,45.60
2023-02-04T18:23:37.989Z,45.88
2023-02-04T18:26:18.901Z,45.64
2023-02-04T18:28:52.161Z,45.47
2023-02-04T18:31:35.986Z,45.52
2023-02-04T18:34:21.699Z,45.88
2023-02-04T18:36:53.555Z,45.93
2023-02-04T18:39:30.316Z,45.81
2023-02-04T18:42:00.493Z,45.79
2023-02-04T18:44:37.180Z,45.79
2023-02-04T18:47:32.055Z,45.86
2023-02-04T18:50:18.200Z,46.04
2023-02-04T18:52:48.855Z,45.89
2023-02-04T18:55:31.110Z,45.81
2023-02-04T18:58:31.482Z,46.02
2023-02-04T19:01:04.429Z,45.91
2023-02-04T19:03:42.361Z,46.18
2023-02-04T19:06:28.486Z,46.05
2023-02-04T19:09:18.758Z,46.34
2023-02-04T19:11:53.745Z,46.10
2023-02-04T19:14:37.239Z,46.06
2023-02-04T19:17:27.116Z,45.90
2023-02-04T19:20:02.265Z,46.56
2023-02-04T19:22:46.524Z,45.96
2023-02-04T19:25:36.003Z,45.98
2023-02-04T19:28:30.550Z,46.47
2023-02-04T19:31:05.822Z,46.63
2023-02-04T19:33:42.681Z,46.50
2023-02-04T19:36:37.394Z,46.46
2023-02-04T19:39:32.421Z,46.65
2023-02-04T19:42:03.137Z,46.75
2023-02-04T19:44:46.870Z,46.33
2023-02-04T19:47:28.936Z,46.57
2023-02-04T19:50:20.479Z,46.18
2023-02-04T19:52:54.484Z,46.80
2023-02-04T19:55:35.509Z,46.43
2023-02-04T19:58:18.906Z,46.81
2023-02-04T20:01:01.470Z,46.89
2023-02-04T20:03:43.636Z,46.79
2023-02-04T20:06:34.303Z,46.25
2023-02-04T20:09:13.849Z,46.75
2023-02-04T20:12:13.846Z,46.73
2023-02-04T20:14:52.869Z,46.85
2023-02-04T20:17:38.246Z,46.88
2023-02-04T20:20:29.673Z,46.98
2023-02-04T20:23:01.165Z,46.36
2023-02-04T20:25:51.508Z,47.01
2023-02-04T20:28:46.278Z,46.91
2023-02-04T20:31:31.210Z,47.06
2023-02-04T20:34:03.487Z,46.79
2023-02-04T20:36:42.035Z,46.54
2023-02-04T20:39:43.665Z,46.81
2023-02-04T20:42:47.219Z,46.51
2023-02-04T20:45:36.192Z,46.42
2023-02-04T20:48:33.592Z,46.71
2023-02-04T20:51:07.485Z,46.72
2023-02-04T20:53:43.044Z,46.59
2023-02-04T20:56:28.223Z,46.75
2023-02-04T20:59:12.585Z,46.51
2023-02-04T21:01:45.936Z,46.67
2023-02-04T21:04:22.666Z,46.47
2023-02-04T21:06:57.606Z,46.92
2023-02-04T21:09:31.108Z,46.65
2023-02-04T21:12:02.653Z,46.65
2023-02-04T21:14:34.381Z,47.00
2023-02-04T21:17:05.859Z,46.89
2023-02-04T21:19:37.335Z,46.88
2023-02-04T21:22:10.113Z,47.12
2023-02-04T21:24:40.350Z,47.22
2023-02-04T21:27:10.969Z,47.26
2023-02-04T21:29:42.433Z,46.79
2023-02-04T21:32:13.130Z,46.97
2023-02-04T21:34:43.495Z,46.92
2023-02-04T21:37:16.086Z,47.25
2023-02-04T21:39:46.859Z,47.00
2023-02-04T21:42:17.523Z,47.24
2023-02-04T21:44:48.200Z,47.13
2023-02-04T21:47:18.993Z,47.07
2023-02-04T21:49:50.177Z,46.79
2023-02-04T21:52:22.871Z,47.28
2023-02-04T21:54:52.997Z,47.31
2023-02-04T21:57:23.636Z,47.22
2023-02-04T21:59:55.011Z,46.95
2023-02-04T22:02:26.317Z,47.00
2023-02-04T22:04:56.955Z,47.12
2023-02-04T22:07:39.957Z,47.01
2023-02-04T22:10:14.075Z,47.17
2023-02-04T22:12:44.964Z,47.29
2023-02-04T22:15:21.708Z,46.99
2023-02-04T22:17:52.932Z,46.96
2023-02-04T22:20:25.205Z,47.05
2023-02-04T22:22:57.593Z,47.24
2023-02-04T22:25:28.179Z,47.24
2023-02-04T22:27:58.710Z,47.39
2023-02-04T22:30:29.471Z,47.68
2023-02-04T22:33:01.198Z,47.49
2023-02-04T22:35:35.671Z,47.57
2023-02-04T22:38:08.544Z,47.69
2023-02-04T22:40:39.101Z,47.52
2023-02-04T22:43:09.681Z,47.21
2023-02-04T22:45:39.666Z,47.40
2023-02-04T22:48:10.416Z,47.69
2023-02-04T22:50:41.369Z,47.78
2023-02-04T22:53:13.557Z,47.40
2023-02-04T22:55:43.631Z,47.48
2023-02-04T22:58:13.560Z,47.39
2023-02-04T23:00:44.875Z,47.53
2023-02-04T23:03:15.444Z,47.41
2023-02-04T23:05:47.594Z,47.73
2023-02-04T23:08:19.911Z,47.53
2023-02-04T23:10:59.697Z,47.76
2023-02-04T23:13:29.892Z,47.84
2023-02-04T23:16:00.824Z,47.67
2023-02-04T23:18:31.584Z,47.64
2023-02-04T23:21:01.563Z,47.71
2023-02-04T23:23:34.110Z,47.92
2023-02-04T23:26:04.389Z,47.29
2023-02-04T23:28:35.526Z,47.54
2023-02-04T23:31:05.757Z,47.44
2023-02-04T23:33:37.040Z,47.38
2023-02-04T23:36:08.044Z,47.71
2023-02-04T23:38:40.756Z,47.91
2023-02-04T23:41:11.470Z,47.82
2023-02-04T23:43:41.502Z,47.43
2023-02-04T23:46:12.177Z,47.38
2023-02-04T23:48:42.774Z,47.60
2023-02-04T23:51:13.998Z,47.63
2023-02-04T23:53:46.461Z,47.78
2023-02-04T23:56:17.644Z,47.77
2023-02-04T23:58:48.321Z,47.88
